sensor_id;sensor_type;location;lat;lon;timestamp;P1;durP1;ratioP1;P2;durP2;ratioP2
29380;SDS011;16364;52.490;13.326;2023-02-28T00:01:53;3.03;;;2.50;;
29380;SDS011;16364;52.490;13.326;2023-02-28T00:04:18;3.00;;;1.90;;
29380;SDS011;16364;52.490;13.326;2023-02-28T00:06:44;4.00;;;2.17;;
29380;SDS011;16364;52.490;13.326;2023-02-28T00:09:09;4.37;;;2.53;;
29380;SDS011;16364;52.490;13.326;2023-02-28T00:11:34;3.77;;;2.40;;
29380;SDS011;16364;52.490;13.326;2023-02-28T00:13:59;3.60;;;2.60;;
29380;SDS011;16364;52.490;13.326;2023-02-28T00:16:25;3.13;;;2.53;;
29380;SDS011;16364;52.490;13.326;2023-02-28T00:18:50;4.90;;;2.50;;
29380;SDS011;16364;52.490;13.326;2023-02-28T00:21:16;2.77;;;2.53;;
29380;SDS011;16364;52.490;13.326;2023-02-28T00:23:41;3.40;;;2.33;;
29380;SDS011;16364;52.490;13.326;2023-02-28T00:26:06;4.30;;;2.70;;
29380;SDS011;16364;52.490;13.326;2023-02-28T00:28:32;2.80;;;2.40;;
29380;SDS011;16364;52.490;13.326;2023-02-28T00:30:57;5.37;;;2.13;;
29380;SDS011;16364;52.490;13.326;2023-02-28T00:33:22;3.87;;;3.10;;
29380;SDS011;16364;52.490;13.326;2023-02-28T00:35:47;4.77;;;2.70;;
29380;SDS011;16364;52.490;13.326;2023-02-28T00:38:13;3.23;;;2.40;;
29380;SDS011;16364;52.490;13.326;2023-02-28T00:40:39;3.17;;;2.60;;
29380;SDS011;16364;52.490;13.326;2023-02-28T00:43:04;3.87;;;2.80;;
29380;SDS011;16364;52.490;13.326;2023-02-28T00:45:29;3.33;;;2.57;;
29380;SDS011;16364;52.490;13.326;2023-02-28T00:47:55;2.90;;;2.17;;
29380;SDS011;16364;52.490;13.326;2023-02-28T00:50:20;4.17;;;2.37;;
29380;SDS011;16364;52.490;13.326;2023-02-28T00:52:45;5.10;;;2.77;;
29380;SDS011;16364;52.490;13.326;2023-02-28T00:55:11;4.80;;;3.17;;
29380;SDS011;16364;52.490;13.326;2023-02-28T00:57:36;3.70;;;2.57;;
29380;SDS011;16364;52.490;13.326;2023-02-28T01:00:02;2.77;;;2.37;;
29380;SDS011;16364;52.490;13.326;2023-02-28T01:02:28;3.53;;;3.07;;
29380;SDS011;16364;52.490;13.326;2023-02-28T01:04:53;3.00;;;2.00;;
29380;SDS011;16364;52.490;13.326;2023-02-28T01:07:18;9.00;;;2.50;;
29380;SDS011;16364;52.490;13.326;2023-02-28T01:09:43;4.57;;;3.67;;
29380;SDS011;16364;52.490;13.326;2023-02-28T01:12:09;3.47;;;2.33;;
29380;SDS011;16364;52.490;13.326;2023-02-28T01:14:34;3.20;;;2.30;;
29380;SDS011;16364;52.490;13.326;2023-02-28T01:17:00;3.13;;;2.43;;
29380;SDS011;16364;52.490;13.326;2023-02-28T01:19:25;3.50;;;3.03;;
29380;SDS011;16364;52.490;13.326;2023-02-28T01:21:51;6.97;;;3.27;;
29380;SDS011;16364;52.490;13.326;2023-02-28T01:24:16;3.53;;;2.53;;
29380;SDS011;16364;52.490;13.326;2023-02-28T01:26:41;4.23;;;3.00;;
29380;SDS011;16364;52.490;13.326;2023-02-28T01:29:06;3.87;;;2.40;;
29380;SDS011;16364;52.490;13.326;2023-02-28T01:31:31;3.90;;;2.53;;
29380;SDS011;16364;52.490;13.326;2023-02-28T01:33:57;4.50;;;2.57;;
29380;SDS011;16364;52.490;13.326;2023-02-28T01:36:23;3.50;;;2.63;;
29380;SDS011;16364;52.490;13.326;2023-02-28T01:38:48;4.20;;;2.50;;
29380;SDS011;16364;52.490;13.326;2023-02-28T01:41:16;3.13;;;2.80;;
29380;SDS011;16364;52.490;13.326;2023-02-28T01:46:10;5.67;;;3.63;;
29380;SDS011;16364;52.490;13.326;2023-02-28T01:48:36;3.53;;;2.87;;
29380;SDS011;16364;52.490;13.326;2023-02-28T01:51:05;4.20;;;2.73;;
29380;SDS011;16364;52.490;13.326;2023-02-28T01:53:36;3.10;;;2.83;;
29380;SDS011;16364;52.490;13.326;2023-02-28T01:56:03;4.97;;;3.33;;
29380;SDS011;16364;52.490;13.326;2023-02-28T01:58:28;4.50;;;2.93;;
29380;SDS011;16364;52.490;13.326;2023-02-28T02:00:54;5.27;;;3.07;;
29380;SDS011;16364;52.490;13.326;2023-02-28T02:03:19;6.47;;;2.73;;
29380;SDS011;16364;52.490;13.326;2023-02-28T02:05:45;5.83;;;3.30;;
29380;SDS011;16364;52.490;13.326;2023-02-28T02:08:15;2.60;;;2.40;;
29380;SDS011;16364;52.490;13.326;2023-02-28T02:10:45;3.17;;;2.87;;
29380;SDS011;16364;52.490;13.326;2023-02-28T02:20:50;5.17;;;3.27;;
29380;SDS011;16364;52.490;13.326;2023-02-28T02:23:29;3.60;;;3.13;;
29380;SDS011;16364;52.490;13.326;2023-02-28T02:31:18;4.83;;;2.87;;
29380;SDS011;16364;52.490;13.326;2023-02-28T02:44:02;2.90;;;2.43;;
29380;SDS011;16364;52.490;13.326;2023-02-28T02:46:33;3.70;;;2.97;;
29380;SDS011;16364;52.490;13.326;2023-02-28T02:49:00;3.27;;;2.70;;
29380;SDS011;16364;52.490;13.326;2023-02-28T02:51:27;3.50;;;2.60;;
29380;SDS011;16364;52.490;13.326;2023-02-28T02:54:13;4.57;;;3.37;;
29380;SDS011;16364;52.490;13.326;2023-02-28T02:56:41;4.33;;;3.13;;
29380;SDS011;16364;52.490;13.326;2023-02-28T02:59:09;6.63;;;3.43;;
29380;SDS011;16364;52.490;13.326;2023-02-28T03:01:35;3.83;;;2.80;;
29380;SDS011;16364;52.490;13.326;2023-02-28T03:04:12;4.17;;;3.40;;
29380;SDS011;16364;52.490;13.326;2023-02-28T03:06:39;3.63;;;2.97;;
29380;SDS011;16364;52.490;13.326;2023-02-28T03:09:04;4.10;;;3.07;;
29380;SDS011;16364;52.490;13.326;2023-02-28T03:11:30;3.47;;;3.13;;
29380;SDS011;16364;52.490;13.326;2023-02-28T03:16:46;4.43;;;3.60;;
29380;SDS011;16364;52.490;13.326;2023-02-28T03:27:31;4.23;;;3.20;;
29380;SDS011;16364;52.490;13.326;2023-02-28T03:30:04;6.37;;;3.90;;
29380;SDS011;16364;52.490;13.326;2023-02-28T03:35:13;4.90;;;3.77;;
29380;SDS011;16364;52.490;13.326;2023-02-28T03:37:40;4.57;;;3.20;;
29380;SDS011;16364;52.490;13.326;2023-02-28T03:40:10;6.50;;;2.90;;
29380;SDS011;16364;52.490;13.326;2023-02-28T03:42:38;6.47;;;3.93;;
29380;SDS011;16364;52.490;13.326;2023-02-28T03:45:05;6.73;;;3.73;;
29380;SDS011;16364;52.490;13.326;2023-02-28T03:47:36;6.10;;;3.73;;
29380;SDS011;16364;52.490;13.326;2023-02-28T03:50:05;5.47;;;3.53;;
29380;SDS011;16364;52.490;13.326;2023-02-28T03:52:33;5.20;;;3.70;;
29380;SDS011;16364;52.490;13.326;2023-02-28T03:55:02;4.80;;;4.10;;
29380;SDS011;16364;52.490;13.326;2023-02-28T03:59:59;4.70;;;3.67;;
29380;SDS011;16364;52.490;13.326;2023-02-28T04:02:27;5.03;;;3.40;;
29380;SDS011;16364;52.490;13.326;2023-02-28T04:04:52;9.27;;;4.43;;
29380;SDS011;16364;52.490;13.326;2023-02-28T04:07:17;5.30;;;3.07;;
29380;SDS011;16364;52.490;13.326;2023-02-28T04:09:43;4.13;;;3.70;;
29380;SDS011;16364;52.490;13.326;2023-02-28T04:12:08;8.20;;;4.53;;
29380;SDS011;16364;52.490;13.326;2023-02-28T04:14:33;4.93;;;4.03;;
29380;SDS011;16364;52.490;13.326;2023-02-28T04:16:59;8.00;;;3.97;;
29380;SDS011;16364;52.490;13.326;2023-02-28T04:19:24;3.87;;;3.40;;
29380;SDS011;16364;52.490;13.326;2023-02-28T04:21:50;5.20;;;3.90;;
29380;SDS011;16364;52.490;13.326;2023-02-28T04:24:20;4.50;;;3.70;;
29380;SDS011;16364;52.490;13.326;2023-02-28T04:26:46;6.70;;;4.30;;
29380;SDS011;16364;52.490;13.326;2023-02-28T04:29:13;5.33;;;3.87;;
29380;SDS011;16364;52.490;13.326;2023-02-28T04:31:39;5.00;;;3.73;;
29380;SDS011;16364;52.490;13.326;2023-02-28T04:34:04;6.57;;;3.97;;
29380;SDS011;16364;52.490;13.326;2023-02-28T04:36:30;3.53;;;3.23;;
29380;SDS011;16364;52.490;13.326;2023-02-28T04:38:55;8.30;;;4.13;;
29380;SDS011;16364;52.490;13.326;2023-02-28T04:41:21;4.73;;;3.87;;
29380;SDS011;16364;52.490;13.326;2023-02-28T04:43:47;3.53;;;3.23;;
29380;SDS011;16364;52.490;13.326;2023-02-28T04:46:13;4.60;;;4.20;;
29380;SDS011;16364;52.490;13.326;2023-02-28T04:48:38;5.40;;;2.97;;
29380;SDS011;16364;52.490;13.326;2023-02-28T04:51:05;8.47;;;4.40;;
29380;SDS011;16364;52.490;13.326;2023-02-28T04:53:30;6.27;;;4.27;;
29380;SDS011;16364;52.490;13.326;2023-02-28T04:55:56;5.20;;;3.60;;
29380;SDS011;16364;52.490;13.326;2023-02-28T04:58:22;7.27;;;4.80;;
29380;SDS011;16364;52.490;13.326;2023-02-28T05:00:49;5.90;;;4.63;;
29380;SDS011;16364;52.490;13.326;2023-02-28T05:03:14;6.40;;;4.27;;
29380;SDS011;16364;52.490;13.326;2023-02-28T05:05:39;4.60;;;4.00;;
29380;SDS011;16364;52.490;13.326;2023-02-28T05:08:05;4.53;;;4.20;;
29380;SDS011;16364;52.490;13.326;2023-02-28T05:10:37;7.57;;;3.63;;
29380;SDS011;16364;52.490;13.326;2023-02-28T05:13:02;5.63;;;3.73;;
29380;SDS011;16364;52.490;13.326;2023-02-28T05:15:27;4.63;;;4.23;;
29380;SDS011;16364;52.490;13.326;2023-02-28T05:17:52;7.47;;;4.37;;
29380;SDS011;16364;52.490;13.326;2023-02-28T05:20:18;5.73;;;3.97;;
29380;SDS011;16364;52.490;13.326;2023-02-28T05:22:43;7.30;;;4.00;;
29380;SDS011;16364;52.490;13.326;2023-02-28T05:25:12;6.27;;;4.30;;
29380;SDS011;16364;52.490;13.326;2023-02-28T05:27:38;6.90;;;4.00;;
29380;SDS011;16364;52.490;13.326;2023-02-28T05:30:04;5.70;;;4.00;;
29380;SDS011;16364;52.490;13.326;2023-02-28T05:32:31;6.07;;;4.50;;
29380;SDS011;16364;52.490;13.326;2023-02-28T05:34:56;6.97;;;4.87;;
29380;SDS011;16364;52.490;13.326;2023-02-28T05:37:21;6.13;;;3.93;;
29380;SDS011;16364;52.490;13.326;2023-02-28T05:39:47;6.90;;;4.40;;
29380;SDS011;16364;52.490;13.326;2023-02-28T05:42:12;5.90;;;4.23;;
29380;SDS011;16364;52.490;13.326;2023-02-28T05:44:38;5.77;;;4.50;;
29380;SDS011;16364;52.490;13.326;2023-02-28T05:47:03;12.60;;;5.80;;
29380;SDS011;16364;52.490;13.326;2023-02-28T05:49:28;5.47;;;4.53;;
29380;SDS011;16364;52.490;13.326;2023-02-28T05:51:54;6.13;;;5.27;;
29380;SDS011;16364;52.490;13.326;2023-02-28T05:54:19;6.43;;;4.40;;
29380;SDS011;16364;52.490;13.326;2023-02-28T05:56:44;4.67;;;4.03;;
29380;SDS011;16364;52.490;13.326;2023-02-28T05:59:11;5.53;;;3.90;;
29380;SDS011;16364;52.490;13.326;2023-02-28T06:01:37;7.07;;;4.47;;
29380;SDS011;16364;52.490;13.326;2023-02-28T06:04:03;5.43;;;3.83;;
29380;SDS011;16364;52.490;13.326;2023-02-28T06:06:29;5.50;;;4.40;;
29380;SDS011;16364;52.490;13.326;2023-02-28T06:08:54;7.70;;;5.07;;
29380;SDS011;16364;52.490;13.326;2023-02-28T06:11:19;7.17;;;4.83;;
29380;SDS011;16364;52.490;13.326;2023-02-28T06:13:45;6.10;;;4.67;;
29380;SDS011;16364;52.490;13.326;2023-02-28T06:16:10;7.50;;;4.90;;
29380;SDS011;16364;52.490;13.326;2023-02-28T06:18:36;7.40;;;6.43;;
29380;SDS011;16364;52.490;13.326;2023-02-28T06:21:01;7.80;;;6.67;;
29380;SDS011;16364;52.490;13.326;2023-02-28T06:23:26;10.30;;;5.70;;
29380;SDS011;16364;52.490;13.326;2023-02-28T06:25:52;7.00;;;4.90;;
29380;SDS011;16364;52.490;13.326;2023-02-28T06:28:18;11.87;;;4.93;;
29380;SDS011;16364;52.490;13.326;2023-02-28T06:30:43;8.67;;;5.70;;
29380;SDS011;16364;52.490;13.326;2023-02-28T06:33:08;6.30;;;4.07;;
29380;SDS011;16364;52.490;13.326;2023-02-28T06:35:33;8.57;;;4.67;;
29380;SDS011;16364;52.490;13.326;2023-02-28T06:37:59;9.57;;;6.10;;
29380;SDS011;16364;52.490;13.326;2023-02-28T06:40:24;9.57;;;5.20;;
29380;SDS011;16364;52.490;13.326;2023-02-28T06:42:49;19.43;;;7.50;;
29380;SDS011;16364;52.490;13.326;2023-02-28T06:45:14;29.67;;;9.17;;
29380;SDS011;16364;52.490;13.326;2023-02-28T06:47:40;51.90;;;13.10;;
29380;SDS011;16364;52.490;13.326;2023-02-28T06:50:06;50.10;;;11.70;;
29380;SDS011;16364;52.490;13.326;2023-02-28T06:52:32;20.53;;;7.43;;
29380;SDS011;16364;52.490;13.326;2023-02-28T06:54:57;14.17;;;7.50;;
29380;SDS011;16364;52.490;13.326;2023-02-28T06:57:27;13.53;;;6.47;;
29380;SDS011;16364;52.490;13.326;2023-02-28T06:59:52;27.60;;;8.30;;
29380;SDS011;16364;52.490;13.326;2023-02-28T07:02:17;71.90;;;15.87;;
29380;SDS011;16364;52.490;13.326;2023-02-28T07:04:42;79.20;;;17.67;;
29380;SDS011;16364;52.490;13.326;2023-02-28T07:07:09;43.27;;;12.20;;
29380;SDS011;16364;52.490;13.326;2023-02-28T07:09:34;31.47;;;9.20;;
29380;SDS011;16364;52.490;13.326;2023-02-28T07:12:00;20.70;;;7.40;;
29380;SDS011;16364;52.490;13.326;2023-02-28T07:14:25;15.00;;;6.00;;
29380;SDS011;16364;52.490;13.326;2023-02-28T07:16:50;15.73;;;6.23;;
29380;SDS011;16364;52.490;13.326;2023-02-28T07:19:16;11.93;;;10.37;;
29380;SDS011;16364;52.490;13.326;2023-02-28T07:21:41;12.60;;;8.67;;
29380;SDS011;16364;52.490;13.326;2023-02-28T07:24:06;8.80;;;7.83;;
29380;SDS011;16364;52.490;13.326;2023-02-28T07:26:31;8.13;;;7.33;;
29380;SDS011;16364;52.490;13.326;2023-02-28T07:28:59;8.23;;;7.23;;
29380;SDS011;16364;52.490;13.326;2023-02-28T07:31:24;7.03;;;6.27;;
29380;SDS011;16364;52.490;13.326;2023-02-28T07:33:49;9.40;;;5.47;;
29380;SDS011;16364;52.490;13.326;2023-02-28T07:36:15;8.20;;;4.77;;
29380;SDS011;16364;52.490;13.326;2023-02-28T07:38:42;16.43;;;6.03;;
29380;SDS011;16364;52.490;13.326;2023-02-28T07:41:08;8.57;;;5.23;;
29380;SDS011;16364;52.490;13.326;2023-02-28T07:43:34;7.50;;;5.07;;
29380;SDS011;16364;52.490;13.326;2023-02-28T07:46:04;7.50;;;4.30;;
29380;SDS011;16364;52.490;13.326;2023-02-28T07:48:30;5.57;;;4.03;;
29380;SDS011;16364;52.490;13.326;2023-02-28T07:50:55;7.53;;;4.03;;
29380;SDS011;16364;52.490;13.326;2023-02-28T07:53:21;4.77;;;4.37;;
29380;SDS011;16364;52.490;13.326;2023-02-28T07:55:46;8.40;;;4.47;;
29380;SDS011;16364;52.490;13.326;2023-02-28T07:58:11;8.60;;;5.30;;
29380;SDS011;16364;52.490;13.326;2023-02-28T08:00:36;14.97;;;4.70;;
29380;SDS011;16364;52.490;13.326;2023-02-28T08:03:01;10.37;;;4.23;;
29380;SDS011;16364;52.490;13.326;2023-02-28T08:05:27;7.53;;;3.97;;
29380;SDS011;16364;52.490;13.326;2023-02-28T08:07:52;9.40;;;4.17;;
29380;SDS011;16364;52.490;13.326;2023-02-28T08:10:18;22.87;;;4.80;;
29380;SDS011;16364;52.490;13.326;2023-02-28T08:12:43;9.60;;;4.03;;
29380;SDS011;16364;52.490;13.326;2023-02-28T08:15:08;10.33;;;3.27;;
29380;SDS011;16364;52.490;13.326;2023-02-28T08:17:34;19.50;;;4.83;;
29380;SDS011;16364;52.490;13.326;2023-02-28T08:19:59;19.50;;;2.93;;
29380;SDS011;16364;52.490;13.326;2023-02-28T08:22:24;33.73;;;5.97;;
29380;SDS011;16364;52.490;13.326;2023-02-28T08:24:49;68.20;;;10.73;;
29380;SDS011;16364;52.490;13.326;2023-02-28T08:27:15;24.47;;;6.03;;
29380;SDS011;16364;52.490;13.326;2023-02-28T08:29:40;13.60;;;5.03;;
29380;SDS011;16364;52.490;13.326;2023-02-28T08:32:06;4.27;;;1.80;;
29380;SDS011;16364;52.490;13.326;2023-02-28T08:34:31;5.03;;;1.83;;
29380;SDS011;16364;52.490;13.326;2023-02-28T08:36:57;5.17;;;3.67;;
29380;SDS011;16364;52.490;13.326;2023-02-28T08:39:22;2.97;;;1.80;;
29380;SDS011;16364;52.490;13.326;2023-02-28T08:41:47;2.20;;;1.87;;
29380;SDS011;16364;52.490;13.326;2023-02-28T08:44:13;21.10;;;3.50;;
29380;SDS011;16364;52.490;13.326;2023-02-28T08:46:38;3.40;;;1.60;;
29380;SDS011;16364;52.490;13.326;2023-02-28T08:49:03;8.83;;;2.30;;
29380;SDS011;16364;52.490;13.326;2023-02-28T08:51:28;4.17;;;1.80;;
29380;SDS011;16364;52.490;13.326;2023-02-28T08:53:58;8.03;;;2.00;;
29380;SDS011;16364;52.490;13.326;2023-02-28T08:56:24;2.40;;;1.33;;
29380;SDS011;16364;52.490;13.326;2023-02-28T08:58:50;4.03;;;1.60;;
29380;SDS011;16364;52.490;13.326;2023-02-28T09:03:41;2.53;;;1.90;;
29380;SDS011;16364;52.490;13.326;2023-02-28T09:06:07;3.80;;;2.17;;
29380;SDS011;16364;52.490;13.326;2023-02-28T09:08:32;1.70;;;1.40;;
29380;SDS011;16364;52.490;13.326;2023-02-28T09:10:57;1.60;;;1.50;;
29380;SDS011;16364;52.490;13.326;2023-02-28T09:13:23;3.70;;;2.50;;
29380;SDS011;16364;52.490;13.326;2023-02-28T09:15:49;3.10;;;2.00;;
29380;SDS011;16364;52.490;13.326;2023-02-28T09:18:14;2.17;;;1.50;;
29380;SDS011;16364;52.490;13.326;2023-02-28T09:20:40;2.00;;;1.37;;
29380;SDS011;16364;52.490;13.326;2023-02-28T09:23:06;2.70;;;1.50;;
29380;SDS011;16364;52.490;13.326;2023-02-28T09:25:32;2.70;;;1.80;;
29380;SDS011;16364;52.490;13.326;2023-02-28T09:27:57;2.17;;;1.77;;
29380;SDS011;16364;52.490;13.326;2023-02-28T09:30:23;4.20;;;2.10;;
29380;SDS011;16364;52.490;13.326;2023-02-28T09:32:48;2.10;;;1.70;;
29380;SDS011;16364;52.490;13.326;2023-02-28T09:35:20;2.13;;;1.70;;
29380;SDS011;16364;52.490;13.326;2023-02-28T09:37:46;1.50;;;1.40;;
29380;SDS011;16364;52.490;13.326;2023-02-28T09:40:11;2.50;;;1.60;;
29380;SDS011;16364;52.490;13.326;2023-02-28T09:42:37;3.07;;;1.53;;
29380;SDS011;16364;52.490;13.326;2023-02-28T09:45:05;1.73;;;1.60;;
29380;SDS011;16364;52.490;13.326;2023-02-28T09:47:41;3.60;;;2.57;;
29380;SDS011;16364;52.490;13.326;2023-02-28T09:50:32;3.67;;;2.20;;
29380;SDS011;16364;52.490;13.326;2023-02-28T09:52:55;3.03;;;2.30;;
29380;SDS011;16364;52.490;13.326;2023-02-28T09:55:22;2.87;;;1.63;;
29380;SDS011;16364;52.490;13.326;2023-02-28T09:57:49;5.33;;;1.73;;
29380;SDS011;16364;52.490;13.326;2023-02-28T10:05:14;4.07;;;1.63;;
29380;SDS011;16364;52.490;13.326;2023-02-28T10:08:14;2.43;;;1.40;;
29380;SDS011;16364;52.490;13.326;2023-02-28T10:13:02;1.70;;;1.60;;
29380;SDS011;16364;52.490;13.326;2023-02-28T10:15:30;1.63;;;1.53;;
29380;SDS011;16364;52.490;13.326;2023-02-28T10:18:00;1.60;;;1.50;;
29380;SDS011;16364;52.490;13.326;2023-02-28T10:20:27;2.23;;;1.60;;
29380;SDS011;16364;52.490;13.326;2023-02-28T10:25:22;2.30;;;1.50;;
29380;SDS011;16364;52.490;13.326;2023-02-28T10:27:49;6.10;;;2.30;;
29380;SDS011;16364;52.490;13.326;2023-02-28T10:30:15;2.60;;;1.90;;
29380;SDS011;16364;52.490;13.326;2023-02-28T10:32:41;2.20;;;2.00;;
29380;SDS011;16364;52.490;13.326;2023-02-28T10:35:15;1.73;;;1.50;;
29380;SDS011;16364;52.490;13.326;2023-02-28T10:37:44;2.20;;;1.40;;
29380;SDS011;16364;52.490;13.326;2023-02-28T10:45:22;2.43;;;1.40;;
29380;SDS011;16364;52.490;13.326;2023-02-28T10:52:53;1.67;;;1.57;;
29380;SDS011;16364;52.490;13.326;2023-02-28T10:57:44;1.90;;;1.70;;
29380;SDS011;16364;52.490;13.326;2023-02-28T11:00:14;3.30;;;1.57;;
29380;SDS011;16364;52.490;13.326;2023-02-28T11:02:39;3.03;;;1.80;;
29380;SDS011;16364;52.490;13.326;2023-02-28T11:05:22;1.90;;;1.70;;
29380;SDS011;16364;52.490;13.326;2023-02-28T11:07:55;3.70;;;1.90;;
29380;SDS011;16364;52.490;13.326;2023-02-28T11:10:21;3.07;;;1.77;;
29380;SDS011;16364;52.490;13.326;2023-02-28T11:12:48;4.83;;;1.90;;
29380;SDS011;16364;52.490;13.326;2023-02-28T11:15:24;5.20;;;1.83;;
29380;SDS011;16364;52.490;13.326;2023-02-28T11:18:33;1.87;;;1.67;;
29380;SDS011;16364;52.490;13.326;2023-02-28T11:20:38;2.20;;;1.60;;
29380;SDS011;16364;52.490;13.326;2023-02-28T11:23:04;2.33;;;1.90;;
29380;SDS011;16364;52.490;13.326;2023-02-28T11:25:36;2.07;;;1.80;;
29380;SDS011;16364;52.490;13.326;2023-02-28T11:28:06;2.27;;;1.93;;
29380;SDS011;16364;52.490;13.326;2023-02-28T11:30:49;4.33;;;1.63;;
29380;SDS011;16364;52.490;13.326;2023-02-28T11:35:53;2.33;;;2.03;;
29380;SDS011;16364;52.490;13.326;2023-02-28T11:38:20;3.37;;;1.80;;
29380;SDS011;16364;52.490;13.326;2023-02-28T11:40:47;2.57;;;2.13;;
29380;SDS011;16364;52.490;13.326;2023-02-28T11:43:33;2.93;;;1.90;;
29380;SDS011;16364;52.490;13.326;2023-02-28T11:48:27;6.80;;;1.83;;
29380;SDS011;16364;52.490;13.326;2023-02-28T11:56:17;2.60;;;2.27;;
29380;SDS011;16364;52.490;13.326;2023-02-28T12:04:11;5.83;;;3.00;;
29380;SDS011;16364;52.490;13.326;2023-02-28T12:16:43;4.40;;;2.27;;
29380;SDS011;16364;52.490;13.326;2023-02-28T12:26:40;3.53;;;2.07;;
29380;SDS011;16364;52.490;13.326;2023-02-28T12:31:55;2.87;;;2.00;;
29380;SDS011;16364;52.490;13.326;2023-02-28T12:34:31;3.17;;;2.87;;
29380;SDS011;16364;52.490;13.326;2023-02-28T12:36:58;7.10;;;3.97;;
29380;SDS011;16364;52.490;13.326;2023-02-28T12:39:33;5.60;;;3.67;;
29380;SDS011;16364;52.490;13.326;2023-02-28T12:44:32;2.77;;;2.17;;
29380;SDS011;16364;52.490;13.326;2023-02-28T12:46:59;6.13;;;3.07;;
29380;SDS011;16364;52.490;13.326;2023-02-28T12:49:27;2.70;;;2.50;;
29380;SDS011;16364;52.490;13.326;2023-02-28T12:51:56;4.10;;;2.90;;
29380;SDS011;16364;52.490;13.326;2023-02-28T12:57:06;2.30;;;2.10;;
29380;SDS011;16364;52.490;13.326;2023-02-28T12:59:45;6.07;;;3.10;;
29380;SDS011;16364;52.490;13.326;2023-02-28T13:05:10;3.20;;;2.90;;
29380;SDS011;16364;52.490;13.326;2023-02-28T13:10:23;3.77;;;3.30;;
29380;SDS011;16364;52.490;13.326;2023-02-28T13:12:53;3.17;;;2.53;;
29380;SDS011;16364;52.490;13.326;2023-02-28T13:17:53;2.23;;;1.70;;
29380;SDS011;16364;52.490;13.326;2023-02-28T13:20:23;2.80;;;2.13;;
29380;SDS011;16364;52.490;13.326;2023-02-28T13:22:50;3.80;;;2.13;;
29380;SDS011;16364;52.490;13.326;2023-02-28T13:27:47;3.93;;;2.20;;
29380;SDS011;16364;52.490;13.326;2023-02-28T13:36:08;3.80;;;2.60;;
29380;SDS011;16364;52.490;13.326;2023-02-28T13:38:35;3.50;;;2.17;;
29380;SDS011;16364;52.490;13.326;2023-02-28T13:46:28;2.90;;;2.40;;
29380;SDS011;16364;52.490;13.326;2023-02-28T13:48:54;3.87;;;1.97;;
29380;SDS011;16364;52.490;13.326;2023-02-28T13:57:04;3.87;;;2.30;;
29380;SDS011;16364;52.490;13.326;2023-02-28T14:02:21;2.30;;;2.10;;
29380;SDS011;16364;52.490;13.326;2023-02-28T14:07:21;5.10;;;2.20;;
29380;SDS011;16364;52.490;13.326;2023-02-28T14:09:50;2.77;;;2.30;;
29380;SDS011;16364;52.490;13.326;2023-02-28T14:15:01;6.03;;;1.80;;
29380;SDS011;16364;52.490;13.326;2023-02-28T14:17:26;2.70;;;2.00;;
29380;SDS011;16364;52.490;13.326;2023-02-28T14:19:52;2.73;;;2.33;;
29380;SDS011;16364;52.490;13.326;2023-02-28T14:32:47;4.70;;;2.30;;
29380;SDS011;16364;52.490;13.326;2023-02-28T14:37:58;3.30;;;2.30;;
29380;SDS011;16364;52.490;13.326;2023-02-28T14:42:58;2.27;;;2.07;;
29380;SDS011;16364;52.490;13.326;2023-02-28T14:45:29;2.60;;;2.00;;
29380;SDS011;16364;52.490;13.326;2023-02-28T14:47:55;2.37;;;2.00;;
29380;SDS011;16364;52.490;13.326;2023-02-28T14:50:22;3.00;;;2.20;;
29380;SDS011;16364;52.490;13.326;2023-02-28T14:52:50;2.30;;;2.10;;
29380;SDS011;16364;52.490;13.326;2023-02-28T14:55:17;3.03;;;1.93;;
29380;SDS011;16364;52.490;13.326;2023-02-28T14:57:53;3.20;;;2.50;;
29380;SDS011;16364;52.490;13.326;2023-02-28T15:00:23;2.70;;;2.10;;
29380;SDS011;16364;52.490;13.326;2023-02-28T15:02:49;2.57;;;2.37;;
29380;SDS011;16364;52.490;13.326;2023-02-28T15:07:45;4.07;;;2.00;;
29380;SDS011;16364;52.490;13.326;2023-02-28T15:10:22;3.10;;;2.10;;
29380;SDS011;16364;52.490;13.326;2023-02-28T15:12:57;2.13;;;1.93;;
29380;SDS011;16364;52.490;13.326;2023-02-28T15:15:27;3.40;;;2.03;;
29380;SDS011;16364;52.490;13.326;2023-02-28T15:17:59;2.70;;;2.50;;
29380;SDS011;16364;52.490;13.326;2023-02-28T15:20:25;2.33;;;2.10;;
29380;SDS011;16364;52.490;13.326;2023-02-28T15:22:51;2.40;;;2.20;;
29380;SDS011;16364;52.490;13.326;2023-02-28T15:25:18;5.10;;;2.67;;
29380;SDS011;16364;52.490;13.326;2023-02-28T15:27:45;2.27;;;2.07;;
29380;SDS011;16364;52.490;13.326;2023-02-28T15:30:14;2.63;;;2.03;;
29380;SDS011;16364;52.490;13.326;2023-02-28T15:32:41;3.60;;;2.23;;
29380;SDS011;16364;52.490;13.326;2023-02-28T15:35:25;4.97;;;3.60;;
29380;SDS011;16364;52.490;13.326;2023-02-28T15:40:21;5.07;;;4.13;;
29380;SDS011;16364;52.490;13.326;2023-02-28T15:43:02;3.10;;;2.47;;
29380;SDS011;16364;52.490;13.326;2023-02-28T15:45:31;4.90;;;2.37;;
29380;SDS011;16364;52.490;13.326;2023-02-28T15:47:57;2.80;;;2.00;;
29380;SDS011;16364;52.490;13.326;2023-02-28T15:50:22;2.67;;;2.47;;
29380;SDS011;16364;52.490;13.326;2023-02-28T15:52:47;4.03;;;2.10;;
29380;SDS011;16364;52.490;13.326;2023-02-28T15:57:41;2.63;;;2.30;;
29380;SDS011;16364;52.490;13.326;2023-02-28T16:00:09;2.60;;;2.40;;
29380;SDS011;16364;52.490;13.326;2023-02-28T16:02:36;2.43;;;1.80;;
29380;SDS011;16364;52.490;13.326;2023-02-28T16:07:33;3.03;;;2.10;;
29380;SDS011;16364;52.490;13.326;2023-02-28T16:09:59;2.93;;;2.00;;
29380;SDS011;16364;52.490;13.326;2023-02-28T16:12:28;1.70;;;1.60;;
29380;SDS011;16364;52.490;13.326;2023-02-28T16:14:54;2.67;;;1.90;;
29380;SDS011;16364;52.490;13.326;2023-02-28T16:17:21;3.57;;;2.57;;
29380;SDS011;16364;52.490;13.326;2023-02-28T16:19:47;3.73;;;2.20;;
29380;SDS011;16364;52.490;13.326;2023-02-28T16:22:12;2.97;;;2.50;;
29380;SDS011;16364;52.490;13.326;2023-02-28T16:24:38;2.33;;;2.00;;
29380;SDS011;16364;52.490;13.326;2023-02-28T16:27:04;3.20;;;2.20;;
29380;SDS011;16364;52.490;13.326;2023-02-28T16:29:31;6.97;;;2.40;;
29380;SDS011;16364;52.490;13.326;2023-02-28T16:31:57;2.17;;;2.00;;
29380;SDS011;16364;52.490;13.326;2023-02-28T16:34:22;4.20;;;2.43;;
29380;SDS011;16364;52.490;13.326;2023-02-28T16:36:48;2.87;;;2.07;;
29380;SDS011;16364;52.490;13.326;2023-02-28T16:39:13;3.27;;;2.30;;
29380;SDS011;16364;52.490;13.326;2023-02-28T16:41:39;3.23;;;2.37;;
29380;SDS011;16364;52.490;13.326;2023-02-28T16:44:08;3.40;;;2.13;;
29380;SDS011;16364;52.490;13.326;2023-02-28T16:46:35;2.73;;;2.40;;
29380;SDS011;16364;52.490;13.326;2023-02-28T16:49:01;2.83;;;2.50;;
29380;SDS011;16364;52.490;13.326;2023-02-28T16:51:26;3.70;;;2.07;;
29380;SDS011;16364;52.490;13.326;2023-02-28T16:53:51;3.13;;;2.13;;
29380;SDS011;16364;52.490;13.326;2023-02-28T16:56:18;3.30;;;2.17;;
29380;SDS011;16364;52.490;13.326;2023-02-28T16:58:44;3.80;;;2.23;;
29380;SDS011;16364;52.490;13.326;2023-02-28T17:01:10;3.10;;;2.00;;
29380;SDS011;16364;52.490;13.326;2023-02-28T17:03:35;3.83;;;2.17;;
29380;SDS011;16364;52.490;13.326;2023-02-28T17:06:02;2.87;;;2.50;;
29380;SDS011;16364;52.490;13.326;2023-02-28T17:08:27;3.30;;;2.80;;
29380;SDS011;16364;52.490;13.326;2023-02-28T17:10:54;2.60;;;2.27;;
29380;SDS011;16364;52.490;13.326;2023-02-28T17:13:19;4.10;;;2.47;;
29380;SDS011;16364;52.490;13.326;2023-02-28T17:15:44;2.80;;;2.40;;
29380;SDS011;16364;52.490;13.326;2023-02-28T17:18:15;3.13;;;2.70;;
29380;SDS011;16364;52.490;13.326;2023-02-28T17:20:41;3.83;;;3.07;;
29380;SDS011;16364;52.490;13.326;2023-02-28T17:23:07;3.93;;;2.90;;